createdAt,value
2019-01-16T00:04:43.370Z,57.53
2019-01-16T00:10:17.732Z,55.47
2019-01-16T00:15:42.568Z,51.27
2019-01-16T00:20:53.556Z,64.17
2019-01-16T00:26:09.363Z,32.90
2019-01-16T00:31:30.595Z,37.50
2019-01-16T00:36:55.617Z,37.27
2019-01-16T00:42:24.023Z,54.67
2019-01-16T00:47:44.851Z,41.67
2019-01-16T00:53:05.428Z,33.93
2019-01-16T00:58:45.308Z,44.97
2019-01-16T01:04:13.443Z,33.13
2019-01-16T01:09:34.255Z,39.33
2019-01-16T01:14:58.653Z,37.97
2019-01-16T01:20:21.219Z,43.17
2019-01-16T01:25:41.474Z,32.67
2019-01-16T01:31:05.948Z,45.97
2019-01-16T01:36:28.510Z,30.37
2019-01-16T01:41:50.871Z,32.43
2019-01-16T01:47:01.640Z,35.97
2019-01-16T01:52:29.660Z,34.03
2019-01-16T01:57:58.955Z,32.30
2019-01-16T02:03:23.514Z,53.10
2019-01-16T02:08:44.396Z,34.00
2019-01-16T02:13:54.663Z,29.73
2019-01-16T02:19:09.749Z,38.33
2019-01-16T02:24:44.302Z,39.47
2019-01-16T02:30:05.540Z,39.13
2019-01-16T02:35:31.690Z,35.93
2019-01-16T02:41:02.637Z,45.30
2019-01-16T02:46:23.871Z,37.93
2019-01-16T02:52:03.622Z,41.97
2019-01-16T02:57:40.540Z,26.00
2019-01-16T03:02:55.063Z,30.13
2019-01-16T03:08:23.514Z,25.57
2019-01-16T03:13:39.830Z,44.37
2019-01-16T03:19:04.599Z,49.83
2019-01-16T03:24:27.247Z,34.33
2019-01-16T03:29:49.560Z,36.30
2019-01-16T03:35:10.597Z,30.70
2019-01-16T03:40:25.177Z,40.67
2019-01-16T03:45:35.459Z,38.43
2019-01-16T03:50:47.268Z,43.23
2019-01-16T03:56:06.853Z,35.60
2019-01-16T04:01:38.133Z,40.70
2019-01-16T04:07:07.138Z,39.90
2019-01-16T04:12:25.519Z,33.40
2019-01-16T04:17:46.345Z,45.30
2019-01-16T04:23:11.371Z,31.27
2019-01-16T04:28:32.043Z,30.80
2019-01-16T04:33:52.715Z,47.47
2019-01-16T04:39:06.872Z,29.33
2019-01-16T04:44:35.059Z,38.87
2019-01-16T04:49:48.512Z,37.97
2019-01-16T04:55:16.203Z,43.93
2019-01-16T05:00:36.268Z,35.57
2019-01-16T05:05:52.529Z,39.10
2019-01-16T05:11:02.835Z,42.53
2019-01-16T05:16:24.222Z,33.23
2019-01-16T05:21:55.399Z,57.77
2019-01-16T05:27:16.015Z,57.53
2019-01-16T05:32:37.438Z,45.10
2019-01-16T05:37:56.382Z,35.47
2019-01-16T05:43:13.141Z,43.10
2019-01-16T05:48:47.501Z,43.67
2019-01-16T05:54:10.266Z,41.27
2019-01-16T05:59:35.232Z,34.00
2019-01-16T06:04:52.417Z,30.63
2019-01-16T06:10:26.358Z,33.63
2019-01-16T06:15:43.183Z,36.77
2019-01-16T06:21:04.056Z,48.67
2019-01-16T06:26:15.300Z,46.97
2019-01-16T06:31:31.513Z,36.67
2019-01-16T06:36:46.455Z,46.10
2019-01-16T06:42:01.549Z,57.20
2019-01-16T06:47:32.547Z,34.20
2019-01-16T06:52:57.669Z,29.90
2019-01-16T06:58:13.425Z,43.23
2019-01-16T07:03:45.566Z,32.47
2019-01-16T07:08:56.767Z,32.53
2019-01-16T07:14:16.780Z,32.33
2019-01-16T07:19:33.284Z,40.90
2019-01-16T07:24:55.847Z,32.83
2019-01-16T07:30:07.867Z,30.43
2019-01-16T07:35:20.288Z,36.93
2019-01-16T07:40:51.355Z,49.80
2019-01-16T07:46:14.944Z,23.20
2019-01-16T07:51:46.209Z,27.93
2019-01-16T07:57:00.697Z,24.47
2019-01-16T08:02:23.864Z,23.10
2019-01-16T08:08:01.091Z,37.43
2019-01-16T08:13:35.713Z,38.70
2019-01-16T08:18:57.055Z,32.88
2019-01-16T08:24:15.721Z,29.43
2019-01-16T08:29:46.887Z,33.00
2019-01-16T08:34:59.822Z,31.53
2019-01-16T08:40:27.843Z,32.50
2019-01-16T08:45:41.982Z,29.53
2019-01-16T08:51:15.931Z,23.77
2019-01-16T08:56:42.273Z,19.00
2019-01-16T09:02:02.779Z,29.90
2019-01-16T09:07:25.361Z,20.97
2019-01-16T09:12:46.584Z,22.60
2019-01-16T09:17:57.015Z,29.50
2019-01-16T09:23:17.776Z,16.90
2019-01-16T09:28:42.906Z,22.53
2019-01-16T09:34:10.894Z,15.77
2019-01-16T09:39:36.174Z,17.40
2019-01-16T09:44:51.000Z,30.17
2019-01-16T09:50:28.017Z,19.30
2019-01-16T09:56:04.528Z,17.03
2019-01-16T10:01:24.897Z,26.80
2019-01-16T10:06:36.519Z,19.73
2019-01-16T10:11:56.011Z,23.47
2019-01-16T10:17:33.219Z,12.33
2019-01-16T10:22:47.383Z,23.57
2019-01-16T10:28:12.087Z,14.40
2019-01-16T10:33:32.683Z,14.43
2019-01-16T10:39:07.267Z,12.40
2019-01-16T10:44:35.446Z,10.17
2019-01-16T10:49:57.715Z,16.90
2019-01-16T10:55:09.657Z,13.20
2019-01-16T11:00:28.852Z,15.73
2019-01-16T11:05:50.972Z,11.23
2019-01-16T11:11:16.198Z,15.60
2019-01-16T11:16:30.254Z,18.00
2019-01-16T11:21:51.383Z,10.03
2019-01-16T11:27:22.957Z,18.73
2019-01-16T11:32:34.877Z,20.00
2019-01-16T11:37:50.986Z,9.90
2019-01-16T11:43:09.225Z,20.40
2019-01-16T11:48:25.011Z,18.03
2019-01-16T11:53:40.264Z,12.77
2019-01-16T11:59:01.172Z,12.00
2019-01-16T12:04:22.716Z,6.23
2019-01-16T12:09:43.742Z,10.90
2019-01-16T12:15:04.462Z,6.00
2019-01-16T12:20:20.476Z,8.70
2019-01-16T12:25:41.810Z,7.30
2019-01-16T12:31:10.511Z,9.97
2019-01-16T12:36:27.864Z,10.83
2019-01-16T12:41:43.557Z,12.80
2019-01-16T12:47:03.856Z,11.33
2019-01-16T12:52:22.333Z,11.67
2019-01-16T12:57:36.311Z,10.80
2019-01-16T13:02:48.413Z,13.53
2019-01-16T13:08:28.498Z,16.23
2019-01-16T13:13:59.356Z,17.20
2019-01-16T13:19:26.578Z,14.20
2019-01-16T13:24:46.586Z,16.70
2019-01-16T13:30:06.733Z,16.03
2019-01-16T13:35:25.511Z,10.93
2019-01-16T13:40:46.747Z,11.25
2019-01-16T13:46:05.826Z,9.43
2019-01-16T13:51:24.191Z,8.37
2019-01-16T13:56:46.343Z,13.60
2019-01-16T14:02:02.760Z,11.87
2019-01-16T14:07:21.749Z,11.43
2019-01-16T14:12:39.703Z,11.77
2019-01-16T14:18:00.928Z,12.10
2019-01-16T14:23:16.117Z,12.30
2019-01-16T14:28:40.506Z,15.90
2019-01-16T14:34:02.328Z,13.40
2019-01-16T14:39:25.205Z,18.80
2019-01-16T14:44:47.809Z,16.57
2019-01-16T14:49:58.906Z,15.83
2019-01-16T14:55:13.941Z,16.00
2019-01-16T15:00:48.032Z,15.03
2019-01-16T15:05:59.020Z,20.40
2019-01-16T15:11:19.936Z,20.03
2019-01-16T15:16:45.074Z,22.33
2019-01-16T15:21:59.432Z,18.70
2019-01-16T15:27:22.000Z,17.90
2019-01-16T15:32:42.541Z,15.67
2019-01-16T15:38:04.513Z,24.60
2019-01-16T15:43:23.550Z,23.17
2019-01-16T15:48:38.345Z,22.83
2019-01-16T15:53:59.229Z,25.17
2019-01-16T15:59:27.115Z,25.23
2019-01-16T16:04:49.703Z,25.90
2019-01-16T16:10:18.521Z,24.07
2019-01-16T16:15:42.825Z,23.93
2019-01-16T16:21:03.650Z,28.73
2019-01-16T16:26:20.070Z,28.80
2019-01-16T16:31:34.292Z,28.20
2019-01-16T16:36:55.480Z,35.13
2019-01-16T16:42:18.529Z,29.60
2019-01-16T16:47:40.100Z,22.37
2019-01-16T16:53:22.231Z,26.97
2019-01-16T16:59:04.643Z,26.00
2019-01-16T17:04:38.580Z,34.87
2019-01-16T17:10:11.588Z,34.00
2019-01-16T17:15:47.783Z,31.07
2019-01-16T17:21:03.394Z,34.03
2019-01-16T17:26:34.182Z,35.23
2019-01-16T17:31:59.296Z,31.40
2019-01-16T17:37:26.063Z,30.70
2019-01-16T17:42:50.508Z,34.50
2019-01-16T17:48:08.632Z,29.03
2019-01-16T17:53:29.324Z,31.60
2019-01-16T17:58:51.053Z,26.30
2019-01-16T18:04:06.772Z,29.63
2019-01-16T18:09:28.897Z,27.60
2019-01-16T18:14:48.292Z,26.90
2019-01-16T18:20:21.288Z,26.07
2019-01-16T18:25:43.661Z,28.07
2019-01-16T18:31:14.433Z,28.40
2019-01-16T18:36:45.985Z,27.63
2019-01-16T18:42:08.655Z,38.03
2019-01-16T18:47:26.512Z,37.50
2019-01-16T18:52:55.546Z,39.57
2019-01-16T18:58:42.035Z,43.70
2019-01-16T19:04:08.124Z,38.10
2019-01-16T19:09:32.723Z,41.87
2019-01-16T19:14:43.537Z,42.97
2019-01-16T19:20:04.641Z,41.70
2019-01-16T19:25:19.605Z,41.97
2019-01-16T19:30:51.096Z,43.97
2019-01-16T19:36:06.704Z,39.50
2019-01-16T19:41:28.820Z,56.47
2019-01-16T19:47:04.204Z,44.07
2019-01-16T19:52:19.787Z,44.10
2019-01-16T19:57:53.395Z,40.97
2019-01-16T20:03:20.959Z,39.50
2019-01-16T20:08:44.173Z,40.03
2019-01-16T20:14:02.994Z,43.37
2019-01-16T20:19:27.929Z,37.50
2019-01-16T20:24:53.377Z,41.30
2019-01-16T20:30:18.148Z,36.03
2019-01-16T20:35:45.728Z,34.13
2019-01-16T20:41:05.016Z,31.60
2019-01-16T20:46:44.327Z,26.90
2019-01-16T20:52:20.261Z,27.80
2019-01-16T20:57:46.943Z,31.83
2019-01-16T21:03:08.221Z,27.37
2019-01-16T21:08:49.434Z,26.10
2019-01-16T21:14:02.986Z,28.33
2019-01-16T21:19:25.098Z,27.73
2019-01-16T21:24:51.410Z,23.67
2019-01-16T21:30:15.025Z,23.53
2019-01-16T21:35:45.705Z,26.90
2019-01-16T21:41:06.439Z,27.70
2019-01-16T21:46:28.386Z,34.73
2019-01-16T21:51:42.260Z,31.83
2019-01-16T21:57:03.255Z,38.53
2019-01-16T22:02:22.970Z,34.63
2019-01-16T22:07:41.899Z,37.20
2019-01-16T22:13:02.876Z,37.40
2019-01-16T22:18:20.894Z,43.07
2019-01-16T22:23:47.002Z,33.63
2019-01-16T22:29:06.123Z,39.73
2019-01-16T22:34:22.346Z,33.50
2019-01-16T22:39:52.476Z,38.77
2019-01-16T22:45:20.337Z,41.17
2019-01-16T22:50:38.402Z,47.60
2019-01-16T22:56:10.165Z,43.23
2019-01-16T23:01:42.542Z,44.37
2019-01-16T23:07:02.242Z,40.80
2019-01-16T23:12:23.471Z,37.97
2019-01-16T23:17:48.587Z,43.33
2019-01-16T23:22:59.085Z,43.37
2019-01-16T23:28:19.800Z,36.50
2019-01-16T23:33:51.172Z,37.80
2019-01-16T23:39:16.702Z,30.97
2019-01-16T23:44:31.164Z,39.27
2019-01-16T23:49:59.785Z,38.50
2019-01-16T23:55:22.048Z,37.30
